createdAt,value
2019-03-18T00:00:42.981Z,5.4
2019-03-18T00:01:52.215Z,5.5
2019-03-18T00:03:01.535Z,5.5
2019-03-18T00:04:10.688Z,5.4
2019-03-18T00:05:19.931Z,5.4
2019-03-18T00:06:29.173Z,5.4
2019-03-18T00:07:38.447Z,5.4
2019-03-18T00:08:47.893Z,5.4
2019-03-18T00:09:56.961Z,5.5
2019-03-18T00:11:06.157Z,5.5
2019-03-18T00:12:15.377Z,5.4
2019-03-18T00:13:24.617Z,5.4
2019-03-18T00:14:33.857Z,5.4
2019-03-18T00:15:43.088Z,5.4
2019-03-18T00:16:52.329Z,5.4
2019-03-18T00:18:01.594Z,5.4
2019-03-18T00:19:10.849Z,5.4
2019-03-18T00:20:20.083Z,5.4
2019-03-18T00:21:29.305Z,5.3
2019-03-18T00:22:38.536Z,5.4
2019-03-18T00:23:47.777Z,5.4
2019-03-18T00:24:57.038Z,5.4
2019-03-18T00:26:06.267Z,5.4
2019-03-18T00:27:15.556Z,5.5
2019-03-18T00:28:24.742Z,5.4
2019-03-18T00:29:33.977Z,5.4
2019-03-18T00:30:43.222Z,5.4
2019-03-18T00:31:52.470Z,5.4
2019-03-18T00:33:03.165Z,5.4
2019-03-18T00:34:10.981Z,5.3
2019-03-18T00:35:20.183Z,5.3
2019-03-18T00:36:29.444Z,5.3
2019-03-18T00:37:38.675Z,5.3
2019-03-18T00:38:47.972Z,5.3
2019-03-18T00:39:57.153Z,5.3
2019-03-18T00:41:06.377Z,5.4
2019-03-18T00:42:15.672Z,5.3
2019-03-18T00:43:24.869Z,5.4
2019-03-18T00:44:34.095Z,5.4
2019-03-18T00:45:43.349Z,5.3
2019-03-18T00:46:52.600Z,5.3
2019-03-18T00:48:01.852Z,5.3
2019-03-18T00:49:11.059Z,5.3
2019-03-18T00:50:20.375Z,5.3
2019-03-18T00:51:29.514Z,5.4
2019-03-18T00:52:38.768Z,5.3
2019-03-18T00:53:48.010Z,5.4
2019-03-18T00:54:57.260Z,5.3
2019-03-18T00:56:06.468Z,5.3
2019-03-18T00:57:15.814Z,5.3
2019-03-18T00:58:25.027Z,5.4
2019-03-18T00:59:34.246Z,5.4
2019-03-18T01:00:43.421Z,5.4
2019-03-18T01:01:52.684Z,5.4
2019-03-18T01:03:01.890Z,5.5
2019-03-18T01:04:11.189Z,5.4
2019-03-18T01:05:20.379Z,5.4
2019-03-18T01:06:29.611Z,5.4
2019-03-18T01:07:38.888Z,5.4
2019-03-18T01:08:48.112Z,5.4
2019-03-18T01:09:57.342Z,5.4
2019-03-18T01:11:06.582Z,5.3
2019-03-18T01:12:15.832Z,5.4
2019-03-18T01:13:25.076Z,5.4
2019-03-18T01:14:34.280Z,5.4
2019-03-18T01:15:43.518Z,5.3
2019-03-18T01:16:52.754Z,5.3
2019-03-18T01:18:02.009Z,5.3
2019-03-18T01:19:11.251Z,5.2
2019-03-18T01:20:20.483Z,5.3
2019-03-18T01:21:29.712Z,5.3
2019-03-18T01:22:38.952Z,5.3
2019-03-18T01:23:48.225Z,5.4
2019-03-18T01:24:57.443Z,5.3
2019-03-18T01:26:06.672Z,5.3
2019-03-18T01:27:15.910Z,5.3
2019-03-18T01:28:25.153Z,5.2
2019-03-18T01:29:34.387Z,5.3
2019-03-18T01:30:43.641Z,5.2
2019-03-18T01:31:52.913Z,5.2
2019-03-18T01:33:02.130Z,5.2
2019-03-18T01:34:11.336Z,5.3
2019-03-18T01:35:20.620Z,5.2
2019-03-18T01:36:29.858Z,5.3
2019-03-18T01:37:39.044Z,5.2
2019-03-18T01:38:48.285Z,5.3
2019-03-18T01:39:57.537Z,5.2
2019-03-18T01:41:06.825Z,5.3
2019-03-18T01:42:16.920Z,5.3
2019-03-18T01:43:25.304Z,5.3
2019-03-18T01:44:34.474Z,5.3
2019-03-18T01:45:43.710Z,5.4
2019-03-18T01:46:52.965Z,5.2
2019-03-18T01:48:02.222Z,5.1
2019-03-18T01:49:11.432Z,4.9
2019-03-18T01:50:20.666Z,4.8
2019-03-18T01:51:29.956Z,4.7
2019-03-18T01:52:39.149Z,4.7
2019-03-18T01:53:48.381Z,4.6
2019-03-18T01:54:57.604Z,4.6
2019-03-18T01:56:06.849Z,4.6
2019-03-18T01:57:16.089Z,4.5
2019-03-18T01:58:25.316Z,4.5
2019-03-18T01:59:34.564Z,4.4
2019-03-18T02:00:43.795Z,4.4
2019-03-18T02:01:53.010Z,4.4
2019-03-18T02:03:02.256Z,4.4
2019-03-18T02:04:11.456Z,4.4
2019-03-18T02:05:20.680Z,4.4
2019-03-18T02:06:29.909Z,4.4
2019-03-18T02:07:39.138Z,4.4
2019-03-18T02:08:48.417Z,4.4
2019-03-18T02:09:57.587Z,4.4
2019-03-18T02:11:06.810Z,4.4
2019-03-18T02:12:16.142Z,4.4
2019-03-18T02:13:25.270Z,4.4
2019-03-18T02:14:34.470Z,4.4
2019-03-18T02:15:52.578Z,4.4
2019-03-18T02:16:52.930Z,4.4
2019-03-18T02:18:02.192Z,4.4
2019-03-18T02:19:11.350Z,4.3
2019-03-18T02:20:20.636Z,4.3
2019-03-18T02:21:29.815Z,4.3
2019-03-18T02:22:39.078Z,4.3
2019-03-18T02:23:48.244Z,4.3
2019-03-18T02:24:57.525Z,4.3
2019-03-18T02:26:06.737Z,4.3
2019-03-18T02:27:16.106Z,4.4
2019-03-18T02:28:25.119Z,4.5
2019-03-18T02:29:34.361Z,4.4
2019-03-18T02:30:43.567Z,4.4
2019-03-18T02:31:52.788Z,4.4
2019-03-18T02:33:01.998Z,4.4
2019-03-18T02:34:11.214Z,4.3
2019-03-18T02:35:20.591Z,4.3
2019-03-18T02:36:29.658Z,4.3
2019-03-18T02:37:38.881Z,4.4
2019-03-18T02:38:48.114Z,4.3
2019-03-18T02:39:57.308Z,4.3
2019-03-18T02:41:06.529Z,4.3
2019-03-18T02:42:15.759Z,4.3
2019-03-18T02:43:24.966Z,4.3
2019-03-18T02:44:34.177Z,4.3
2019-03-18T02:45:43.417Z,4.3
2019-03-18T02:46:52.624Z,4.3
2019-03-18T02:48:02.083Z,4.3
2019-03-18T02:49:11.175Z,4.3
2019-03-18T02:50:20.266Z,4.2
2019-03-18T02:51:29.504Z,4.3
2019-03-18T02:52:38.767Z,4.3
2019-03-18T02:53:47.928Z,4.3
2019-03-18T02:54:57.165Z,4.4
2019-03-18T02:56:06.435Z,4.3
2019-03-18T02:57:15.577Z,4.4
2019-03-18T02:58:24.844Z,4.4
2019-03-18T02:59:34.016Z,4.3
2019-03-18T03:00:43.246Z,4.5
2019-03-18T03:01:52.433Z,4.3
2019-03-18T03:03:01.680Z,4.3
2019-03-18T03:04:10.871Z,4.5
2019-03-18T03:05:20.094Z,4.4
2019-03-18T03:06:29.309Z,4.4
2019-03-18T03:07:38.549Z,4.4
2019-03-18T03:08:47.789Z,4.5
2019-03-18T03:09:57.098Z,4.4
2019-03-18T03:11:06.225Z,4.4
2019-03-18T03:12:15.547Z,4.5
2019-03-18T03:13:24.668Z,4.4
2019-03-18T03:14:33.846Z,4.4
2019-03-18T03:15:43.112Z,4.4
2019-03-18T03:16:52.404Z,4.4
2019-03-18T03:18:01.509Z,4.4
2019-03-18T03:19:10.718Z,4.4
2019-03-18T03:20:19.992Z,4.4
2019-03-18T03:21:29.217Z,4.4
2019-03-18T03:22:38.369Z,4.5
2019-03-18T03:23:47.842Z,4.4
2019-03-18T03:24:56.864Z,4.4
2019-03-18T03:26:06.081Z,4.5
2019-03-18T03:27:15.234Z,4.5
2019-03-18T03:28:24.458Z,4.4
2019-03-18T03:29:33.727Z,4.5
2019-03-18T03:30:42.905Z,4.4
2019-03-18T03:31:52.124Z,4.5
2019-03-18T03:33:01.419Z,4.5
2019-03-18T03:34:13.534Z,4.4
2019-03-18T03:35:19.766Z,4.5
2019-03-18T03:36:29.284Z,4.5
2019-03-18T03:37:38.227Z,4.5
2019-03-18T03:38:47.560Z,4.5
2019-03-18T03:39:56.650Z,4.6
2019-03-18T03:41:05.870Z,4.6
2019-03-18T03:42:15.151Z,4.6
2019-03-18T03:43:24.310Z,4.5
2019-03-18T03:44:33.529Z,4.5
2019-03-18T03:46:51.999Z,4.6
2019-03-18T03:48:01.248Z,4.6
2019-03-18T03:49:10.417Z,4.6
2019-03-18T03:50:19.628Z,4.7
2019-03-18T03:51:28.855Z,4.6
2019-03-18T03:52:38.070Z,4.6
2019-03-18T03:53:47.465Z,4.6
2019-03-18T03:54:56.533Z,4.7
2019-03-18T03:56:05.835Z,4.7
2019-03-18T03:57:15.036Z,4.6
2019-03-18T03:58:24.195Z,4.6
2019-03-18T03:59:33.432Z,4.6
2019-03-18T04:00:42.634Z,4.6
2019-03-18T04:01:51.860Z,4.6
2019-03-18T04:03:01.127Z,4.6
2019-03-18T04:04:10.407Z,4.5
2019-03-18T04:05:19.554Z,4.5
2019-03-18T04:06:28.762Z,4.5
2019-03-18T04:07:37.994Z,4.5
2019-03-18T04:08:47.317Z,4.5
2019-03-18T04:09:56.429Z,4.5
2019-03-18T04:11:08.378Z,4.5
2019-03-18T04:12:14.864Z,4.4
2019-03-18T04:13:24.129Z,4.5
2019-03-18T04:14:33.307Z,4.4
2019-03-18T04:15:42.531Z,4.4
2019-03-18T04:17:01.505Z,4.4
2019-03-18T04:18:00.980Z,4.4
2019-03-18T04:19:10.234Z,4.4
2019-03-18T04:20:19.443Z,4.4
2019-03-18T04:21:28.640Z,4.4
2019-03-18T04:22:37.875Z,4.4
2019-03-18T04:23:47.151Z,4.4
2019-03-18T04:24:56.347Z,4.4
2019-03-18T04:26:05.710Z,4.4
2019-03-18T04:27:14.745Z,4.4
2019-03-18T04:28:23.967Z,4.5
2019-03-18T04:29:33.210Z,4.5
2019-03-18T04:30:42.558Z,4.5
2019-03-18T04:31:51.660Z,4.4
2019-03-18T04:33:00.998Z,4.5
2019-03-18T04:34:10.094Z,4.5
2019-03-18T04:35:19.316Z,4.5
2019-03-18T04:36:28.531Z,4.6
2019-03-18T04:37:37.819Z,4.6
2019-03-18T04:38:46.959Z,4.6
2019-03-18T04:39:56.180Z,4.6
2019-03-18T04:41:05.483Z,4.6
2019-03-18T04:42:14.630Z,4.7
2019-03-18T04:43:23.859Z,4.7
2019-03-18T04:44:33.225Z,4.7
2019-03-18T04:45:42.316Z,4.7
2019-03-18T04:46:51.516Z,4.7
2019-03-18T04:48:00.740Z,4.7
2019-03-18T04:49:09.978Z,4.7
2019-03-18T04:50:19.259Z,4.7
2019-03-18T04:51:28.416Z,4.7
2019-03-18T04:52:37.658Z,4.7
2019-03-18T04:53:46.876Z,4.7
2019-03-18T04:54:56.100Z,4.8
2019-03-18T04:56:05.325Z,4.8
2019-03-18T04:57:14.571Z,4.7
2019-03-18T04:58:23.781Z,4.8
2019-03-18T04:59:32.998Z,4.8
2019-03-18T05:00:42.230Z,4.8
2019-03-18T05:01:51.468Z,4.8
2019-03-18T05:03:00.873Z,4.8
2019-03-18T05:04:09.905Z,4.8
2019-03-18T05:05:19.194Z,4.8
2019-03-18T05:06:28.367Z,4.8
2019-03-18T05:07:37.606Z,4.8
2019-03-18T05:08:46.817Z,4.8
2019-03-18T05:09:56.062Z,4.8
2019-03-18T05:11:05.272Z,4.8
2019-03-18T05:12:14.507Z,4.8
2019-03-18T05:13:26.376Z,4.8
2019-03-18T05:14:33.041Z,4.8
2019-03-18T05:15:42.201Z,4.8
2019-03-18T05:16:51.431Z,4.8
2019-03-18T05:18:00.647Z,4.7
2019-03-18T05:19:09.925Z,4.8
2019-03-18T05:20:19.116Z,4.8
2019-03-18T05:21:28.368Z,4.8
2019-03-18T05:22:37.602Z,4.7
2019-03-18T05:23:46.821Z,4.8
2019-03-18T05:24:56.037Z,4.8
2019-03-18T05:26:05.278Z,4.8
2019-03-18T05:27:14.558Z,4.8
2019-03-18T05:28:23.763Z,4.8
2019-03-18T05:29:32.974Z,4.8
2019-03-18T05:30:42.224Z,4.8
2019-03-18T05:31:51.463Z,4.8
2019-03-18T05:33:00.709Z,4.8
2019-03-18T05:34:09.910Z,4.8
2019-03-18T05:35:19.189Z,4.8
2019-03-18T05:36:28.351Z,4.8
2019-03-18T05:44:58.191Z,4.8
2019-03-18T05:45:42.369Z,4.8
2019-03-18T05:46:51.494Z,4.9
2019-03-18T05:48:00.713Z,4.9
2019-03-18T05:49:09.917Z,4.9
2019-03-18T05:50:19.147Z,4.9
2019-03-18T05:51:28.388Z,4.9
2019-03-18T05:52:37.617Z,4.9
2019-03-18T05:53:46.909Z,4.9
2019-03-18T05:54:56.087Z,4.9
2019-03-18T05:56:05.331Z,4.9
2019-03-18T05:57:14.607Z,4.9
2019-03-18T05:58:23.792Z,4.9
2019-03-18T05:59:33.023Z,4.9
2019-03-18T06:00:42.257Z,4.9
2019-03-18T06:01:51.499Z,4.9
2019-03-18T06:03:00.776Z,4.9
2019-03-18T06:04:09.962Z,4.9
2019-03-18T06:05:19.202Z,4.9
2019-03-18T06:06:28.436Z,4.9
2019-03-18T06:07:37.680Z,4.9
2019-03-18T06:08:46.933Z,4.9
2019-03-18T06:09:56.176Z,4.8
2019-03-18T06:11:05.380Z,4.9
2019-03-18T06:12:14.604Z,4.9
2019-03-18T06:13:23.842Z,4.9
2019-03-18T06:14:33.092Z,4.9
2019-03-18T06:15:42.316Z,4.9
2019-03-18T06:16:51.563Z,5
2019-03-18T06:18:00.792Z,5
2019-03-18T06:19:10.037Z,5
2019-03-18T06:20:19.283Z,5
2019-03-18T06:21:28.545Z,5
2019-03-18T06:22:37.787Z,5
2019-03-18T06:23:47.001Z,5
2019-03-18T06:24:56.310Z,5
2019-03-18T06:26:05.535Z,5
2019-03-18T06:27:14.703Z,5
2019-03-18T06:28:23.937Z,5
2019-03-18T06:29:33.200Z,5.1
2019-03-18T06:30:42.430Z,5.1
2019-03-18T06:31:51.658Z,5.1
2019-03-18T06:33:00.908Z,5.1
2019-03-18T06:34:10.224Z,5.1
2019-03-18T06:35:20.568Z,5.2
2019-03-18T06:36:28.705Z,5.1
2019-03-18T06:37:37.886Z,5.2
2019-03-18T06:38:47.129Z,5.2
2019-03-18T06:39:56.372Z,5.2
2019-03-18T06:41:05.611Z,5.2
2019-03-18T06:42:14.845Z,5.2
2019-03-18T06:43:24.098Z,5.2
2019-03-18T06:44:33.347Z,5.2
2019-03-18T06:45:42.596Z,5.2
2019-03-18T06:46:51.843Z,5.2
2019-03-18T06:48:05.030Z,5.2
2019-03-18T06:49:10.353Z,5.2
2019-03-18T06:50:19.583Z,5.2
2019-03-18T06:51:28.976Z,5.2
2019-03-18T06:52:38.072Z,5.2
2019-03-18T06:53:47.361Z,5.2
2019-03-18T06:54:56.636Z,5.2
2019-03-18T06:56:05.804Z,5.2
2019-03-18T06:57:15.063Z,5.3
2019-03-18T06:58:24.298Z,5.2
2019-03-18T06:59:33.619Z,5.3
2019-03-18T07:00:42.808Z,5.3
2019-03-18T07:01:52.065Z,5.3
2019-03-18T07:03:01.402Z,5.2
2019-03-18T07:04:10.531Z,5.3
2019-03-18T07:05:19.842Z,5.2
2019-03-18T07:06:29.049Z,5.3
2019-03-18T07:07:38.274Z,5.3
2019-03-18T07:08:47.544Z,5.3
2019-03-18T07:09:56.794Z,5.3
2019-03-18T07:11:06.032Z,5.3
2019-03-18T07:12:15.297Z,5.3
2019-03-18T07:13:24.536Z,5.4
2019-03-18T07:14:33.784Z,5.3
2019-03-18T07:15:43.035Z,5.4
2019-03-18T07:16:52.358Z,5.5
2019-03-18T07:18:01.547Z,5.5
2019-03-18T07:19:10.884Z,5.5
2019-03-18T07:20:20.055Z,5.4
2019-03-18T07:21:29.311Z,5.5
2019-03-18T07:22:38.583Z,5.6
2019-03-18T07:23:47.814Z,5.5
2019-03-18T07:24:57.072Z,5.6
2019-03-18T07:26:06.441Z,5.6
2019-03-18T07:27:15.601Z,5.6
2019-03-18T07:28:24.879Z,5.7
2019-03-18T07:29:34.113Z,5.6
2019-03-18T07:30:43.401Z,5.7
2019-03-18T07:31:52.737Z,5.7
2019-03-18T07:33:01.904Z,5.7
2019-03-18T07:34:11.387Z,5.8
2019-03-18T07:35:20.445Z,5.8
2019-03-18T07:36:29.801Z,5.8
2019-03-18T07:37:38.983Z,5.9
2019-03-18T07:38:48.358Z,5.8
2019-03-18T07:39:57.539Z,5.8
2019-03-18T07:41:06.760Z,5.8
2019-03-18T07:42:16.030Z,5.9
2019-03-18T07:43:25.313Z,5.8
2019-03-18T07:44:34.740Z,5.9
2019-03-18T07:45:43.838Z,5.9
2019-03-18T07:46:53.118Z,5.9
2019-03-18T07:48:02.418Z,5.8
2019-03-18T07:49:11.656Z,6
2019-03-18T07:50:20.933Z,6
2019-03-18T07:51:30.271Z,6
2019-03-18T07:52:39.495Z,6
2019-03-18T07:53:48.786Z,6.1
2019-03-18T07:54:58.043Z,6
2019-03-18T07:56:07.310Z,6.1
2019-03-18T07:57:16.607Z,6
2019-03-18T07:58:25.856Z,6.1
2019-03-18T07:59:35.133Z,6.1
2019-03-18T08:00:44.460Z,6
2019-03-18T08:01:53.706Z,6
2019-03-18T08:03:03.528Z,6
2019-03-18T08:04:12.243Z,6
2019-03-18T08:05:21.564Z,6
2019-03-18T08:06:30.816Z,6
2019-03-18T08:07:40.096Z,6
2019-03-18T08:08:49.388Z,6
2019-03-18T08:09:58.651Z,6
2019-03-18T08:11:07.939Z,6
2019-03-18T08:12:17.257Z,6.1
2019-03-18T08:13:26.552Z,6.2
2019-03-18T08:14:35.792Z,6.3
2019-03-18T08:15:45.065Z,6.3
2019-03-18T08:16:54.345Z,6.4
2019-03-18T08:18:03.698Z,6.4
2019-03-18T08:19:12.926Z,6.5
2019-03-18T08:20:22.296Z,6.6
2019-03-18T08:21:31.519Z,6.5
2019-03-18T08:22:40.813Z,6.4
2019-03-18T08:23:50.127Z,6.2
2019-03-18T08:24:59.562Z,6.3
2019-03-18T08:26:08.778Z,6.4
2019-03-18T08:27:18.004Z,6.3
2019-03-18T08:28:27.302Z,6.5
2019-03-18T08:29:36.599Z,6.5
2019-03-18T08:30:45.953Z,6.5
2019-03-18T08:31:55.211Z,6.4
2019-03-18T08:33:04.599Z,6.4
2019-03-18T08:34:13.792Z,6.4
2019-03-18T08:35:23.102Z,6.4
2019-03-18T08:36:32.476Z,6.5
2019-03-18T08:37:41.698Z,6.5
2019-03-18T08:38:50.995Z,6.5
2019-03-18T08:40:00.382Z,6.6
2019-03-18T08:41:09.628Z,6.6
2019-03-18T08:42:18.905Z,6.6
2019-03-18T08:43:28.179Z,6.7
2019-03-18T08:44:40.317Z,6.5
2019-03-18T08:45:46.793Z,6.6
2019-03-18T08:46:56.096Z,6.6
2019-03-18T08:48:05.391Z,6.6
2019-03-18T08:49:14.706Z,6.5
2019-03-18T08:50:24.007Z,6.5
2019-03-18T08:51:33.335Z,6.5
2019-03-18T08:52:42.584Z,6.4
2019-03-18T08:53:51.896Z,6.4
2019-03-18T08:55:01.256Z,6.4
2019-03-18T08:56:10.551Z,6.5
2019-03-18T08:57:19.771Z,6.4
2019-03-18T08:58:29.068Z,6.5
2019-03-18T08:59:38.351Z,6.5
2019-03-18T09:00:47.636Z,6.6
2019-03-18T09:01:56.924Z,6.5
2019-03-18T09:04:15.515Z,6.4
2019-03-18T09:05:24.806Z,6.5
2019-03-18T09:06:34.105Z,6.5
2019-03-18T09:07:43.370Z,6.4
2019-03-18T09:08:52.713Z,6.4
2019-03-18T09:10:01.990Z,6.5
2019-03-18T09:11:11.262Z,6.5
2019-03-18T09:12:20.579Z,6.6
2019-03-18T09:13:31.938Z,6.6
2019-03-18T09:14:39.090Z,6.5
2019-03-18T09:15:48.380Z,6.5
2019-03-18T09:16:57.660Z,6.5
2019-03-18T09:18:06.958Z,6.4
2019-03-18T09:19:16.333Z,6.5
2019-03-18T09:20:25.508Z,6.5
2019-03-18T09:21:34.871Z,6.5
2019-03-18T09:22:44.364Z,6.5
2019-03-18T09:23:53.373Z,6.5
2019-03-18T09:25:02.779Z,6.9
2019-03-18T09:26:11.973Z,7.3
2019-03-18T09:27:21.294Z,7.3
2019-03-18T09:28:30.593Z,7.5
2019-03-18T09:29:39.997Z,7.9
2019-03-18T09:30:49.242Z,7.7
2019-03-18T09:31:58.660Z,8.4
2019-03-18T09:33:07.949Z,8.5
2019-03-18T09:34:17.314Z,8.1
2019-03-18T09:35:26.631Z,8
2019-03-18T09:36:36.490Z,8
2019-03-18T09:37:45.384Z,8
2019-03-18T09:38:54.721Z,8.2
2019-03-18T09:40:04.117Z,8.4
2019-03-18T09:41:13.462Z,8.4
2019-03-18T09:42:22.838Z,8.1
2019-03-18T09:43:32.297Z,7.9
2019-03-18T09:44:41.682Z,7.8
2019-03-18T09:45:50.978Z,7.7
2019-03-18T09:47:00.296Z,7.7
2019-03-18T09:48:09.649Z,7.6
2019-03-18T09:49:21.761Z,7.5
2019-03-18T09:50:28.339Z,7.5
2019-03-18T09:51:37.661Z,7.4
2019-03-18T09:52:47.234Z,7.5
2019-03-18T09:53:56.409Z,7.4
2019-03-18T09:55:05.681Z,7.3
2019-03-18T09:56:14.999Z,7.3
2019-03-18T09:57:26.171Z,7.2
2019-03-18T09:58:33.652Z,7.3
2019-03-18T09:59:42.976Z,7.1
2019-03-18T10:00:52.323Z,7.2
2019-03-18T10:02:01.710Z,7.3
2019-03-18T10:03:11.008Z,7.2
2019-03-18T10:04:20.265Z,7.1
2019-03-18T10:05:29.573Z,7.1
2019-03-18T10:06:38.881Z,7.1
2019-03-18T10:07:48.235Z,7
2019-03-18T10:08:57.511Z,7
2019-03-18T10:10:06.833Z,7
2019-03-18T10:11:16.250Z,7
2019-03-18T10:12:25.458Z,7.1
2019-03-18T10:13:34.844Z,7.2
2019-03-18T10:14:44.100Z,7.3
2019-03-18T10:15:53.411Z,7.3
2019-03-18T10:17:09.296Z,7.4
2019-03-18T10:18:12.011Z,7.2
2019-03-18T10:19:32.686Z,7.2
2019-03-18T10:20:30.665Z,7.2
2019-03-18T10:21:39.972Z,7.2
2019-03-18T10:22:49.385Z,7.1
2019-03-18T10:23:58.585Z,7.2
2019-03-18T10:25:07.913Z,7.1
2019-03-18T10:26:17.228Z,7.1
2019-03-18T10:27:26.578Z,7.1
2019-03-18T10:28:35.861Z,7.1
2019-03-18T10:29:45.190Z,7
2019-03-18T10:30:54.466Z,7.3
2019-03-18T10:32:03.818Z,7.6
2019-03-18T10:33:13.113Z,7.8
2019-03-18T10:34:22.577Z,8.2
2019-03-18T10:35:31.767Z,9
2019-03-18T10:36:41.133Z,9.2
2019-03-18T10:37:50.418Z,9.6
2019-03-18T10:38:59.930Z,10.1
2019-03-18T10:40:09.162Z,10.5
2019-03-18T10:41:18.545Z,10.6
2019-03-18T10:42:27.908Z,9.8
2019-03-18T10:43:37.297Z,9.6
2019-03-18T10:45:56.074Z,9.5
2019-03-18T10:47:05.488Z,8.9
2019-03-18T10:48:14.983Z,8.7
2019-03-18T10:49:24.273Z,9.1
2019-03-18T10:50:33.613Z,8.7
2019-03-18T10:51:43.051Z,8.8
2019-03-18T10:52:52.463Z,8.9
2019-03-18T10:54:01.806Z,8.9
2019-03-18T10:55:11.176Z,8.8
2019-03-18T10:56:20.526Z,8.8
2019-03-18T10:57:29.917Z,8.8
2019-03-18T10:58:39.626Z,8.8
2019-03-18T10:59:48.843Z,8.6
2019-03-18T11:00:58.006Z,8.7
2019-03-18T11:02:07.380Z,8.5
2019-03-18T11:03:16.786Z,8.4
2019-03-18T11:04:26.135Z,8.3
2019-03-18T11:05:35.467Z,8
2019-03-18T11:06:44.879Z,7.8
2019-03-18T11:07:54.201Z,7.6
2019-03-18T11:09:03.552Z,7.6
2019-03-18T11:10:13.006Z,7.6
2019-03-18T11:11:22.280Z,7.5
2019-03-18T11:12:31.592Z,7.4
2019-03-18T11:13:40.968Z,7.5
2019-03-18T11:14:50.322Z,7.5
2019-03-18T11:15:59.741Z,7.6
2019-03-18T11:17:09.087Z,7.7
2019-03-18T11:18:18.449Z,7.6
2019-03-18T11:19:27.663Z,7.5
2019-03-18T11:20:37.028Z,7.7
2019-03-18T11:21:46.464Z,8.5
2019-03-18T11:22:55.703Z,9.1
2019-03-18T11:24:05.209Z,9.5
2019-03-18T11:25:14.424Z,9.9
2019-03-18T11:26:23.968Z,10.2
2019-03-18T11:27:33.213Z,10.7
2019-03-18T11:28:42.795Z,11
2019-03-18T11:29:51.945Z,11.1
2019-03-18T11:31:01.503Z,10.5
2019-03-18T11:32:10.733Z,10.8
2019-03-18T11:33:20.169Z,11.2
2019-03-18T11:34:29.556Z,11.2
2019-03-18T11:35:38.983Z,11.7
2019-03-18T11:36:48.410Z,11.9
2019-03-18T11:37:57.937Z,11.1
2019-03-18T11:39:07.332Z,11.1
2019-03-18T11:40:16.798Z,11.2
2019-03-18T11:41:26.203Z,10.9
2019-03-18T11:42:35.709Z,10.4
2019-03-18T11:44:54.583Z,10
2019-03-18T11:46:04.036Z,9.5
2019-03-18T11:47:13.449Z,9.7
2019-03-18T11:48:22.891Z,9.7
2019-03-18T11:49:39.307Z,9.3
2019-03-18T11:50:41.775Z,9.3
2019-03-18T11:51:51.193Z,9.2
2019-03-18T11:53:00.732Z,9.2
2019-03-18T11:54:10.102Z,9.3
2019-03-18T11:55:19.440Z,9.2
2019-03-18T11:56:28.841Z,9.3
2019-03-18T11:57:38.295Z,9.1
2019-03-18T11:58:47.672Z,9.2
2019-03-18T11:59:57.074Z,9.2
2019-03-18T12:01:06.541Z,9.3
2019-03-18T12:02:27.120Z,9.2
2019-03-18T12:03:25.313Z,9.2
2019-03-18T12:04:34.671Z,9
2019-03-18T12:05:44.154Z,9.1
2019-03-18T12:06:53.648Z,9.3
2019-03-18T12:08:03.060Z,9.4
2019-03-18T12:09:12.301Z,9.5
2019-03-18T12:10:21.627Z,9.8
2019-03-18T12:11:31.063Z,10.1
2019-03-18T12:12:40.425Z,10.1
2019-03-18T12:13:49.837Z,10.2
2019-03-18T12:14:59.307Z,10.4
2019-03-18T12:16:08.662Z,10.6
2019-03-18T12:17:18.114Z,10.6
2019-03-18T12:18:27.619Z,10.6
2019-03-18T12:19:36.922Z,10.4
2019-03-18T12:20:46.466Z,10.1
2019-03-18T12:21:55.782Z,11.1
2019-03-18T12:23:05.227Z,10.9
2019-03-18T12:24:14.792Z,10.8
2019-03-18T12:25:24.111Z,10.9
2019-03-18T12:26:33.557Z,10.5
2019-03-18T12:27:43.372Z,10.5
2019-03-18T12:28:52.441Z,10.6
2019-03-18T12:30:01.978Z,10.1
2019-03-18T12:31:11.301Z,10
2019-03-18T12:32:20.781Z,10.1
2019-03-18T12:33:30.308Z,10.1
2019-03-18T12:34:39.698Z,10
2019-03-18T12:35:48.993Z,9.9
2019-03-18T12:36:58.400Z,9.7
2019-03-18T12:38:07.831Z,9.5
2019-03-18T12:39:17.271Z,8.8
2019-03-18T12:40:26.604Z,8.2
2019-03-18T12:41:36.002Z,8.2
2019-03-18T12:42:45.417Z,8.3
2019-03-18T12:43:54.809Z,8.3
2019-03-18T12:45:04.197Z,8.4
2019-03-18T12:46:13.594Z,8.4
2019-03-18T12:47:22.933Z,8.5
2019-03-18T12:48:32.348Z,8.5
2019-03-18T12:49:41.689Z,8.5
2019-03-18T12:50:56.090Z,8.5
2019-03-18T12:52:00.410Z,8.5
2019-03-18T12:53:09.781Z,8.4
2019-03-18T12:54:19.159Z,8.3
2019-03-18T12:55:28.488Z,8.2
2019-03-18T12:57:47.206Z,8.7
2019-03-18T12:58:56.654Z,9.2
2019-03-18T13:00:05.990Z,9.8
2019-03-18T13:01:15.408Z,10
2019-03-18T13:02:24.783Z,10.6
2019-03-18T13:03:34.215Z,10.6
2019-03-18T13:04:43.641Z,10.5
2019-03-18T13:05:53.081Z,10.2
2019-03-18T13:07:02.575Z,10.3
2019-03-18T13:08:11.994Z,10.4
2019-03-18T13:09:21.456Z,10.7
2019-03-18T13:10:30.959Z,10.4
2019-03-18T13:11:40.405Z,10.9
2019-03-18T13:12:49.957Z,10.7
2019-03-18T13:13:59.509Z,10.8
2019-03-18T13:15:08.907Z,10.5
2019-03-18T13:16:18.590Z,10.8
2019-03-18T13:17:28.031Z,11
2019-03-18T13:18:37.445Z,10.8
2019-03-18T13:19:47.037Z,11.1
2019-03-18T13:21:07.237Z,11.7
2019-03-18T13:22:06.277Z,11.3
2019-03-18T13:23:15.635Z,11.4
2019-03-18T13:24:25.193Z,11.4
2019-03-18T13:25:34.738Z,11.3
2019-03-18T13:26:44.404Z,11.1
2019-03-18T13:27:53.848Z,10.6
2019-03-18T13:29:03.400Z,10.5
2019-03-18T13:30:15.273Z,10.4
2019-03-18T13:31:22.407Z,9.9
2019-03-18T13:32:31.904Z,9.9
2019-03-18T13:33:41.720Z,9.9
2019-03-18T13:34:51.302Z,10.1
2019-03-18T13:36:00.289Z,10.2
2019-03-18T13:37:09.779Z,10.1
2019-03-18T13:38:19.189Z,10
2019-03-18T13:39:28.729Z,9.9
2019-03-18T13:40:38.063Z,9.6
2019-03-18T13:41:47.677Z,9.4
2019-03-18T13:42:56.895Z,9.3
2019-03-18T13:44:06.315Z,9.2
2019-03-18T13:45:15.753Z,9.1
2019-03-18T13:46:25.142Z,8.9
2019-03-18T13:47:34.584Z,8.7
2019-03-18T13:48:44.009Z,8.5
2019-03-18T13:49:53.374Z,8.3
2019-03-18T13:51:02.806Z,8.1
2019-03-18T13:52:12.071Z,7.9
2019-03-18T13:53:21.446Z,7.8
2019-03-18T13:54:32.327Z,7.9
2019-03-18T13:55:40.495Z,8.4
2019-03-18T13:56:49.940Z,9
2019-03-18T13:57:59.466Z,9
2019-03-18T13:59:09.059Z,9.3
2019-03-18T14:00:18.624Z,9.4
2019-03-18T14:01:28.234Z,9.5
2019-03-18T14:02:37.841Z,9.4
2019-03-18T14:03:47.519Z,9.7
2019-03-18T14:04:57.121Z,10
2019-03-18T14:06:06.736Z,9.9
2019-03-18T14:07:16.619Z,10.7
2019-03-18T14:08:26.058Z,10.2
2019-03-18T14:09:35.738Z,10.2
2019-03-18T14:10:45.422Z,10.1
2019-03-18T14:11:55.140Z,9.9
2019-03-18T14:13:04.833Z,10.4
2019-03-18T14:14:14.564Z,10.4
2019-03-18T14:15:24.200Z,10.4
2019-03-18T14:16:33.806Z,10.7
2019-03-18T14:17:43.488Z,10.9
2019-03-18T14:18:53.178Z,10.6
2019-03-18T14:20:02.859Z,10.4
2019-03-18T14:21:12.658Z,10.7
2019-03-18T14:22:22.312Z,10.5
2019-03-18T14:23:31.992Z,10.6
2019-03-18T14:24:41.713Z,11.1
2019-03-18T14:25:51.442Z,11.1
2019-03-18T14:27:01.233Z,10.6
2019-03-18T14:28:10.869Z,10.5
2019-03-18T14:29:20.573Z,10.3
2019-03-18T14:30:30.166Z,10.5
2019-03-18T14:31:39.728Z,10.5
2019-03-18T14:32:49.297Z,10.6
2019-03-18T14:33:58.852Z,10.5
2019-03-18T14:35:08.442Z,10.3
2019-03-18T14:36:17.989Z,9.9
2019-03-18T14:37:27.593Z,10.5
2019-03-18T14:38:38.360Z,10.6
2019-03-18T14:39:46.794Z,10.7
2019-03-18T14:40:56.439Z,10.6
2019-03-18T14:42:05.944Z,10.6
2019-03-18T14:43:15.469Z,10.4
2019-03-18T14:44:25.082Z,10.8
2019-03-18T14:45:34.815Z,10.4
2019-03-18T14:46:44.230Z,10.4
2019-03-18T14:47:53.759Z,10.2
2019-03-18T14:49:03.274Z,9.9
2019-03-18T14:50:12.709Z,9.7
2019-03-18T14:51:22.160Z,9.7
2019-03-18T14:52:31.745Z,9.6
2019-03-18T14:53:41.049Z,9.4
2019-03-18T14:54:50.504Z,9.4
2019-03-18T14:55:59.997Z,9.5
2019-03-18T14:57:09.415Z,9
2019-03-18T14:58:18.863Z,8.9
2019-03-18T14:59:28.343Z,9.1
2019-03-18T15:00:37.844Z,9.4
2019-03-18T15:01:47.384Z,9.4
2019-03-18T15:02:56.987Z,9.8
2019-03-18T15:04:06.396Z,9.9
2019-03-18T15:05:15.948Z,10
2019-03-18T15:06:25.414Z,10
2019-03-18T15:07:34.922Z,10.2
2019-03-18T15:08:44.447Z,10.3
2019-03-18T15:09:53.954Z,10.2
2019-03-18T15:11:03.481Z,9.8
2019-03-18T15:12:13.000Z,9.4
2019-03-18T15:13:30.987Z,9.6
2019-03-18T15:14:35.078Z,9.7
2019-03-18T15:15:41.545Z,9.7
2019-03-18T15:16:50.930Z,9.6
2019-03-18T15:18:00.414Z,9.5
2019-03-18T15:19:10.235Z,9.6
2019-03-18T15:20:19.256Z,9.4
2019-03-18T15:21:28.690Z,9.3
2019-03-18T15:22:38.153Z,8.9
2019-03-18T15:23:48.746Z,9
2019-03-18T15:24:58.196Z,9
2019-03-18T15:26:07.518Z,8.8
2019-03-18T15:27:16.904Z,8.7
2019-03-18T15:28:26.316Z,8.5
2019-03-18T15:29:35.717Z,8.4
2019-03-18T15:30:45.061Z,8.4
2019-03-18T15:31:54.435Z,8.2
2019-03-18T15:33:03.855Z,8.3
2019-03-18T15:34:13.187Z,8.2
2019-03-18T15:35:22.612Z,8
2019-03-18T15:36:32.465Z,7.9
2019-03-18T15:37:41.294Z,8
2019-03-18T15:38:50.643Z,7.9
2019-03-18T15:39:59.967Z,7.8
2019-03-18T15:41:09.338Z,7.8
2019-03-18T15:42:18.675Z,7.7
2019-03-18T15:43:28.044Z,7.6
2019-03-18T15:44:37.450Z,7.7
2019-03-18T15:45:46.865Z,7.6
2019-03-18T15:46:56.165Z,7.7
2019-03-18T15:48:05.811Z,7.9
2019-03-18T15:49:14.977Z,7.9
2019-03-18T15:50:24.367Z,8
2019-03-18T15:51:33.752Z,8.1
2019-03-18T15:52:43.139Z,8.1
2019-03-18T15:53:52.591Z,7.9
2019-03-18T15:55:01.928Z,8.2
2019-03-18T15:56:11.332Z,8
2019-03-18T15:57:29.378Z,7.9
2019-03-18T15:58:30.109Z,8.1
2019-03-18T15:59:39.601Z,8.1
2019-03-18T16:00:48.916Z,7.8
2019-03-18T16:01:58.285Z,8.1
2019-03-18T16:03:07.696Z,8.2
2019-03-18T16:04:17.045Z,8.1
2019-03-18T16:05:26.421Z,8.2
2019-03-18T16:06:35.820Z,8.1
2019-03-18T16:07:45.229Z,7.9